sensor_id;sensor_type;location;lat;lon;timestamp;temperature;humidity
1778;DHT22;886;50.082;8.222;2022-07-17T00:02:02;18.90;67.60
1778;DHT22;886;50.082;8.222;2022-07-17T00:04:30;18.90;68.20
1778;DHT22;886;50.082;8.222;2022-07-17T00:06:57;18.90;67.90
1778;DHT22;886;50.082;8.222;2022-07-17T00:09:27;18.80;68.90
1778;DHT22;886;50.082;8.222;2022-07-17T00:11:54;18.80;68.50
1778;DHT22;886;50.082;8.222;2022-07-17T00:14:22;18.80;68.60
1778;DHT22;886;50.082;8.222;2022-07-17T00:16:53;18.70;68.50
1778;DHT22;886;50.082;8.222;2022-07-17T00:19:20;18.60;68.70
1778;DHT22;886;50.082;8.222;2022-07-17T00:21:50;18.60;68.80
1778;DHT22;886;50.082;8.222;2022-07-17T00:24:18;18.50;70.80
1778;DHT22;886;50.082;8.222;2022-07-17T00:26:49;18.30;71.00
1778;DHT22;886;50.082;8.222;2022-07-17T00:29:17;18.20;70.90
1778;DHT22;886;50.082;8.222;2022-07-17T00:31:45;18.20;71.10
1778;DHT22;886;50.082;8.222;2022-07-17T00:34:15;18.30;70.60
1778;DHT22;886;50.082;8.222;2022-07-17T00:36:47;18.40;69.00
1778;DHT22;886;50.082;8.222;2022-07-17T00:39:14;18.40;69.40
1778;DHT22;886;50.082;8.222;2022-07-17T00:41:43;18.40;70.50
1778;DHT22;886;50.082;8.222;2022-07-17T00:44:11;18.30;70.60
1778;DHT22;886;50.082;8.222;2022-07-17T00:46:39;18.30;69.20
1778;DHT22;886;50.082;8.222;2022-07-17T00:49:08;18.30;68.90
1778;DHT22;886;50.082;8.222;2022-07-17T00:51:38;18.30;69.10
1778;DHT22;886;50.082;8.222;2022-07-17T00:54:07;18.20;69.60
1778;DHT22;886;50.082;8.222;2022-07-17T00:56:37;18.20;70.10
1778;DHT22;886;50.082;8.222;2022-07-17T00:59:05;18.20;70.80
1778;DHT22;886;50.082;8.222;2022-07-17T01:01:35;18.10;70.40
1778;DHT22;886;50.082;8.222;2022-07-17T01:04:03;18.10;70.00
1778;DHT22;886;50.082;8.222;2022-07-17T01:06:31;18.10;69.60
1778;DHT22;886;50.082;8.222;2022-07-17T01:09:00;18.00;69.80
1778;DHT22;886;50.082;8.222;2022-07-17T01:11:27;18.00;69.70
1778;DHT22;886;50.082;8.222;2022-07-17T01:13:55;17.80;69.90
1778;DHT22;886;50.082;8.222;2022-07-17T01:16:23;17.80;71.50
1778;DHT22;886;50.082;8.222;2022-07-17T01:18:50;17.70;71.70
1778;DHT22;886;50.082;8.222;2022-07-17T01:21:20;17.80;71.00
1778;DHT22;886;50.082;8.222;2022-07-17T01:23:49;17.70;71.00
1778;DHT22;886;50.082;8.222;2022-07-17T01:26:16;17.80;70.60
1778;DHT22;886;50.082;8.222;2022-07-17T01:28:45;17.80;70.90
1778;DHT22;886;50.082;8.222;2022-07-17T01:31:15;17.80;71.20
1778;DHT22;886;50.082;8.222;2022-07-17T01:33:42;17.80;71.20
1778;DHT22;886;50.082;8.222;2022-07-17T01:36:09;17.70;72.40
1778;DHT22;886;50.082;8.222;2022-07-17T01:38:39;17.60;72.10
1778;DHT22;886;50.082;8.222;2022-07-17T01:41:06;17.60;72.20
1778;DHT22;886;50.082;8.222;2022-07-17T01:43:33;17.60;71.00
1778;DHT22;886;50.082;8.222;2022-07-17T01:46:01;17.60;70.50
1778;DHT22;886;50.082;8.222;2022-07-17T01:48:28;17.50;70.90
1778;DHT22;886;50.082;8.222;2022-07-17T01:50:58;17.40;71.10
1778;DHT22;886;50.082;8.222;2022-07-17T01:53:26;17.30;71.60
1778;DHT22;886;50.082;8.222;2022-07-17T01:55:54;17.30;71.20
1778;DHT22;886;50.082;8.222;2022-07-17T01:58:22;17.30;71.40
1778;DHT22;886;50.082;8.222;2022-07-17T02:00:49;17.30;71.20
1778;DHT22;886;50.082;8.222;2022-07-17T02:03:17;17.10;71.30
1778;DHT22;886;50.082;8.222;2022-07-17T02:05:44;17.00;71.70
1778;DHT22;886;50.082;8.222;2022-07-17T02:08:12;17.10;71.80
1778;DHT22;886;50.082;8.222;2022-07-17T02:10:39;17.00;71.80
1778;DHT22;886;50.082;8.222;2022-07-17T02:13:07;17.00;72.00
1778;DHT22;886;50.082;8.222;2022-07-17T02:15:35;17.00;71.80
1778;DHT22;886;50.082;8.222;2022-07-17T02:18:02;16.90;71.90
1778;DHT22;886;50.082;8.222;2022-07-17T02:20:29;16.80;72.20
1778;DHT22;886;50.082;8.222;2022-07-17T02:23:03;16.80;72.30
1778;DHT22;886;50.082;8.222;2022-07-17T02:25:32;16.70;72.50
1778;DHT22;886;50.082;8.222;2022-07-17T02:28:00;16.70;72.60
1778;DHT22;886;50.082;8.222;2022-07-17T02:30:28;16.70;72.60
1778;DHT22;886;50.082;8.222;2022-07-17T02:32:56;16.60;72.50
1778;DHT22;886;50.082;8.222;2022-07-17T02:35:23;16.60;72.50
1778;DHT22;886;50.082;8.222;2022-07-17T02:37:50;16.60;72.60
1778;DHT22;886;50.082;8.222;2022-07-17T02:40:17;16.60;72.50
1778;DHT22;886;50.082;8.222;2022-07-17T02:42:45;16.70;72.70
1778;DHT22;886;50.082;8.222;2022-07-17T02:45:12;16.70;72.70
1778;DHT22;886;50.082;8.222;2022-07-17T02:47:41;16.70;72.50
1778;DHT22;886;50.082;8.222;2022-07-17T02:50:09;16.80;72.30
1778;DHT22;886;50.082;8.222;2022-07-17T02:52:37;16.80;72.20
1778;DHT22;886;50.082;8.222;2022-07-17T02:55:05;16.90;72.60
1778;DHT22;886;50.082;8.222;2022-07-17T02:57:33;16.80;73.20
1778;DHT22;886;50.082;8.222;2022-07-17T03:00:01;16.80;73.30
1778;DHT22;886;50.082;8.222;2022-07-17T03:02:28;16.80;72.90
1778;DHT22;886;50.082;8.222;2022-07-17T03:04:56;16.80;72.90
1778;DHT22;886;50.082;8.222;2022-07-17T03:07:23;16.80;72.90
1778;DHT22;886;50.082;8.222;2022-07-17T03:09:50;16.80;73.40
1778;DHT22;886;50.082;8.222;2022-07-17T03:12:17;16.70;74.00
1778;DHT22;886;50.082;8.222;2022-07-17T03:14:47;16.60;74.00
1778;DHT22;886;50.082;8.222;2022-07-17T03:17:15;16.60;74.70
1778;DHT22;886;50.082;8.222;2022-07-17T03:19:42;16.60;75.00
1778;DHT22;886;50.082;8.222;2022-07-17T03:22:10;16.60;74.80
1778;DHT22;886;50.082;8.222;2022-07-17T03:24:37;16.50;75.20
1778;DHT22;886;50.082;8.222;2022-07-17T03:27:04;16.30;75.50
1778;DHT22;886;50.082;8.222;2022-07-17T03:29:32;16.30;75.70
1778;DHT22;886;50.082;8.222;2022-07-17T03:31:59;16.30;75.70
1778;DHT22;886;50.082;8.222;2022-07-17T03:34:26;16.20;76.10
1778;DHT22;886;50.082;8.222;2022-07-17T03:36:53;16.10;76.40
1778;DHT22;886;50.082;8.222;2022-07-17T03:39:21;16.00;76.70
1778;DHT22;886;50.082;8.222;2022-07-17T03:41:49;15.80;77.10
1778;DHT22;886;50.082;8.222;2022-07-17T03:44:16;15.80;76.90
1778;DHT22;886;50.082;8.222;2022-07-17T03:46:43;15.80;77.20
1778;DHT22;886;50.082;8.222;2022-07-17T03:49:10;16.00;77.20
1778;DHT22;886;50.082;8.222;2022-07-17T03:51:38;16.10;76.50
1778;DHT22;886;50.082;8.222;2022-07-17T03:54:05;16.10;75.90
1778;DHT22;886;50.082;8.222;2022-07-17T03:56:33;16.10;76.40
1778;DHT22;886;50.082;8.222;2022-07-17T03:59:01;16.00;76.80
1778;DHT22;886;50.082;8.222;2022-07-17T04:01:28;16.00;76.90
1778;DHT22;886;50.082;8.222;2022-07-17T04:03:56;16.00;77.40
1778;DHT22;886;50.082;8.222;2022-07-17T04:06:23;16.00;77.30
1778;DHT22;886;50.082;8.222;2022-07-17T04:08:50;16.00;77.00
1778;DHT22;886;50.082;8.222;2022-07-17T04:11:23;16.10;77.10
1778;DHT22;886;50.082;8.222;2022-07-17T04:13:52;16.10;76.70
1778;DHT22;886;50.082;8.222;2022-07-17T04:16:19;16.10;76.90
1778;DHT22;886;50.082;8.222;2022-07-17T04:18:46;16.00;77.00
1778;DHT22;886;50.082;8.222;2022-07-17T04:21:13;15.90;77.60
1778;DHT22;886;50.082;8.222;2022-07-17T04:23:40;15.90;77.90
1778;DHT22;886;50.082;8.222;2022-07-17T04:26:07;15.90;77.20
1778;DHT22;886;50.082;8.222;2022-07-17T04:28:37;15.80;77.90
1778;DHT22;886;50.082;8.222;2022-07-17T04:31:06;15.90;77.80
1778;DHT22;886;50.082;8.222;2022-07-17T04:33:36;15.70;78.40
1778;DHT22;886;50.082;8.222;2022-07-17T04:36:03;15.70;78.60
1778;DHT22;886;50.082;8.222;2022-07-17T04:38:31;15.80;78.40
1778;DHT22;886;50.082;8.222;2022-07-17T04:40:58;15.90;78.50
1778;DHT22;886;50.082;8.222;2022-07-17T04:43:28;15.70;78.90
1778;DHT22;886;50.082;8.222;2022-07-17T04:45:55;15.70;79.70
1778;DHT22;886;50.082;8.222;2022-07-17T04:48:23;15.70;79.30
1778;DHT22;886;50.082;8.222;2022-07-17T04:50:50;15.90;79.40
1778;DHT22;886;50.082;8.222;2022-07-17T04:53:18;16.00;79.40
1778;DHT22;886;50.082;8.222;2022-07-17T04:55:50;16.00;79.40
1778;DHT22;886;50.082;8.222;2022-07-17T04:58:17;15.90;79.60
1778;DHT22;886;50.082;8.222;2022-07-17T05:00:45;16.00;79.50
1778;DHT22;886;50.082;8.222;2022-07-17T05:03:12;16.10;79.60
1778;DHT22;886;50.082;8.222;2022-07-17T05:05:41;16.20;79.40
1778;DHT22;886;50.082;8.222;2022-07-17T05:08:08;16.20;79.70
1778;DHT22;886;50.082;8.222;2022-07-17T05:10:35;16.20;80.60
1778;DHT22;886;50.082;8.222;2022-07-17T05:13:02;16.20;80.90
1778;DHT22;886;50.082;8.222;2022-07-17T05:15:36;16.30;80.90
1778;DHT22;886;50.082;8.222;2022-07-17T05:18:10;16.40;80.70
1778;DHT22;886;50.082;8.222;2022-07-17T05:20:41;16.50;80.60
1778;DHT22;886;50.082;8.222;2022-07-17T05:23:08;16.50;80.90
1778;DHT22;886;50.082;8.222;2022-07-17T05:25:35;16.50;81.00
1778;DHT22;886;50.082;8.222;2022-07-17T05:28:02;16.60;80.90
1778;DHT22;886;50.082;8.222;2022-07-17T05:30:32;16.70;81.00
1778;DHT22;886;50.082;8.222;2022-07-17T05:32:59;16.80;81.20
1778;DHT22;886;50.082;8.222;2022-07-17T05:35:27;16.80;81.50
1778;DHT22;886;50.082;8.222;2022-07-17T05:37:55;16.70;82.50
1778;DHT22;886;50.082;8.222;2022-07-17T05:40:22;16.80;82.60
1778;DHT22;886;50.082;8.222;2022-07-17T05:42:52;16.90;82.20
1778;DHT22;886;50.082;8.222;2022-07-17T05:45:19;17.00;82.70
1778;DHT22;886;50.082;8.222;2022-07-17T05:47:46;17.10;82.50
1778;DHT22;886;50.082;8.222;2022-07-17T05:50:14;17.20;82.20
1778;DHT22;886;50.082;8.222;2022-07-17T05:52:41;17.30;81.80
1778;DHT22;886;50.082;8.222;2022-07-17T05:55:09;17.40;82.10
1778;DHT22;886;50.082;8.222;2022-07-17T05:57:39;17.50;81.70
1778;DHT22;886;50.082;8.222;2022-07-17T06:00:08;17.60;82.40
1778;DHT22;886;50.082;8.222;2022-07-17T06:02:36;17.70;82.30
1778;DHT22;886;50.082;8.222;2022-07-17T06:05:04;17.70;82.20
1778;DHT22;886;50.082;8.222;2022-07-17T06:07:34;17.70;82.00
1778;DHT22;886;50.082;8.222;2022-07-17T06:10:01;17.80;81.80
1778;DHT22;886;50.082;8.222;2022-07-17T06:12:30;17.90;81.70
1778;DHT22;886;50.082;8.222;2022-07-17T06:14:57;18.00;80.10
1778;DHT22;886;50.082;8.222;2022-07-17T06:17:25;18.10;77.70
1778;DHT22;886;50.082;8.222;2022-07-17T06:19:52;18.20;77.50
1778;DHT22;886;50.082;8.222;2022-07-17T06:22:19;18.30;74.90
1778;DHT22;886;50.082;8.222;2022-07-17T06:24:47;18.60;72.70
1778;DHT22;886;50.082;8.222;2022-07-17T06:27:14;18.90;70.60
1778;DHT22;886;50.082;8.222;2022-07-17T06:29:43;19.30;70.80
1778;DHT22;886;50.082;8.222;2022-07-17T06:32:21;19.70;68.50
1778;DHT22;886;50.082;8.222;2022-07-17T06:34:48;20.20;65.40
1778;DHT22;886;50.082;8.222;2022-07-17T06:37:16;20.30;65.10
1778;DHT22;886;50.082;8.222;2022-07-17T06:39:43;20.50;63.80
1778;DHT22;886;50.082;8.222;2022-07-17T06:42:10;20.70;62.00
1778;DHT22;886;50.082;8.222;2022-07-17T06:44:37;20.70;62.40
1778;DHT22;886;50.082;8.222;2022-07-17T06:47:06;20.60;62.30
1778;DHT22;886;50.082;8.222;2022-07-17T06:49:33;20.50;63.10
1778;DHT22;886;50.082;8.222;2022-07-17T06:52:00;20.50;63.50
1778;DHT22;886;50.082;8.222;2022-07-17T06:54:27;20.50;64.20
1778;DHT22;886;50.082;8.222;2022-07-17T06:56:54;20.50;63.90
1778;DHT22;886;50.082;8.222;2022-07-17T06:59:21;20.50;63.20
1778;DHT22;886;50.082;8.222;2022-07-17T07:01:49;20.60;62.80
1778;DHT22;886;50.082;8.222;2022-07-17T07:04:17;20.80;62.50
1778;DHT22;886;50.082;8.222;2022-07-17T07:06:44;21.10;62.30
1778;DHT22;886;50.082;8.222;2022-07-17T07:09:12;21.20;60.90
1778;DHT22;886;50.082;8.222;2022-07-17T07:11:43;21.40;60.70
1778;DHT22;886;50.082;8.222;2022-07-17T07:14:10;21.70;61.50
1778;DHT22;886;50.082;8.222;2022-07-17T07:16:40;22.40;59.80
1778;DHT22;886;50.082;8.222;2022-07-17T07:19:07;22.80;59.10
1778;DHT22;886;50.082;8.222;2022-07-17T07:21:36;23.60;57.00
1778;DHT22;886;50.082;8.222;2022-07-17T07:24:04;24.00;57.30
1778;DHT22;886;50.082;8.222;2022-07-17T07:26:31;24.40;56.50
1778;DHT22;886;50.082;8.222;2022-07-17T07:28:58;25.30;54.50
1778;DHT22;886;50.082;8.222;2022-07-17T07:31:26;25.70;53.50
1778;DHT22;886;50.082;8.222;2022-07-17T07:33:53;25.70;53.90
1778;DHT22;886;50.082;8.222;2022-07-17T07:36:20;25.60;53.80
1778;DHT22;886;50.082;8.222;2022-07-17T07:38:53;25.20;53.80
1778;DHT22;886;50.082;8.222;2022-07-17T07:41:21;24.80;53.70
1778;DHT22;886;50.082;8.222;2022-07-17T07:43:52;24.30;53.30
1778;DHT22;886;50.082;8.222;2022-07-17T07:46:19;23.80;54.10
1778;DHT22;886;50.082;8.222;2022-07-17T07:48:46;23.50;54.60
1778;DHT22;886;50.082;8.222;2022-07-17T07:51:13;23.40;55.20
1778;DHT22;886;50.082;8.222;2022-07-17T07:53:40;23.40;56.10
1778;DHT22;886;50.082;8.222;2022-07-17T07:56:12;23.20;56.30
1778;DHT22;886;50.082;8.222;2022-07-17T07:58:39;23.20;56.80
1778;DHT22;886;50.082;8.222;2022-07-17T08:01:06;23.20;57.30
1778;DHT22;886;50.082;8.222;2022-07-17T08:03:36;23.00;58.00
1778;DHT22;886;50.082;8.222;2022-07-17T08:06:06;22.90;59.20
1778;DHT22;886;50.082;8.222;2022-07-17T08:08:33;23.00;57.90
1778;DHT22;886;50.082;8.222;2022-07-17T08:11:05;23.00;56.10
1778;DHT22;886;50.082;8.222;2022-07-17T08:13:34;23.00;56.10
1778;DHT22;886;50.082;8.222;2022-07-17T08:16:01;23.00;55.90
1778;DHT22;886;50.082;8.222;2022-07-17T08:18:29;23.10;55.30
1778;DHT22;886;50.082;8.222;2022-07-17T08:20:56;23.20;55.50
1778;DHT22;886;50.082;8.222;2022-07-17T08:23:23;23.20;56.10
1778;DHT22;886;50.082;8.222;2022-07-17T08:25:50;23.20;56.90
1778;DHT22;886;50.082;8.222;2022-07-17T08:28:18;23.50;55.00
1778;DHT22;886;50.082;8.222;2022-07-17T08:30:50;23.90;53.60
1778;DHT22;886;50.082;8.222;2022-07-17T08:33:18;24.30;52.70
1778;DHT22;886;50.082;8.222;2022-07-17T08:35:45;24.30;52.10
1778;DHT22;886;50.082;8.222;2022-07-17T08:38:12;24.30;52.40
1778;DHT22;886;50.082;8.222;2022-07-17T08:40:39;24.10;53.60
1778;DHT22;886;50.082;8.222;2022-07-17T08:43:07;24.10;53.50
1778;DHT22;886;50.082;8.222;2022-07-17T08:45:35;24.00;54.30
1778;DHT22;886;50.082;8.222;2022-07-17T08:48:16;23.90;54.50
1778;DHT22;886;50.082;8.222;2022-07-17T08:50:45;23.90;55.10
1778;DHT22;886;50.082;8.222;2022-07-17T08:53:12;23.80;56.00
1778;DHT22;886;50.082;8.222;2022-07-17T08:55:40;23.70;55.70
1778;DHT22;886;50.082;8.222;2022-07-17T08:58:07;23.60;56.50
1778;DHT22;886;50.082;8.222;2022-07-17T09:00:34;23.60;56.10
1778;DHT22;886;50.082;8.222;2022-07-17T09:03:04;23.70;56.00
1778;DHT22;886;50.082;8.222;2022-07-17T09:05:37;23.60;56.30
1778;DHT22;886;50.082;8.222;2022-07-17T09:08:08;23.60;55.30
1778;DHT22;886;50.082;8.222;2022-07-17T09:10:38;23.60;55.20
1778;DHT22;886;50.082;8.222;2022-07-17T09:13:16;23.60;54.50
1778;DHT22;886;50.082;8.222;2022-07-17T09:15:45;23.60;55.00
1778;DHT22;886;50.082;8.222;2022-07-17T09:18:13;23.60;55.00
1778;DHT22;886;50.082;8.222;2022-07-17T09:20:47;23.60;54.70
1778;DHT22;886;50.082;8.222;2022-07-17T09:23:16;23.70;54.50
1778;DHT22;886;50.082;8.222;2022-07-17T09:25:45;23.80;54.00
1778;DHT22;886;50.082;8.222;2022-07-17T09:28:15;23.90;54.90
1778;DHT22;886;50.082;8.222;2022-07-17T09:30:44;24.00;54.70
1778;DHT22;886;50.082;8.222;2022-07-17T09:33:15;24.10;53.60
1778;DHT22;886;50.082;8.222;2022-07-17T09:35:47;24.40;52.90
1778;DHT22;886;50.082;8.222;2022-07-17T09:38:30;24.40;52.60
1778;DHT22;886;50.082;8.222;2022-07-17T09:41:07;24.50;52.90
1778;DHT22;886;50.082;8.222;2022-07-17T09:43:40;24.50;52.70
1778;DHT22;886;50.082;8.222;2022-07-17T09:46:14;24.50;52.50
1778;DHT22;886;50.082;8.222;2022-07-17T09:48:52;24.50;52.70
1778;DHT22;886;50.082;8.222;2022-07-17T09:51:24;24.40;53.20
1778;DHT22;886;50.082;8.222;2022-07-17T09:53:54;24.40;53.30
1778;DHT22;886;50.082;8.222;2022-07-17T09:56:24;24.40;54.20
1778;DHT22;886;50.082;8.222;2022-07-17T09:58:54;24.50;53.10
1778;DHT22;886;50.082;8.222;2022-07-17T10:01:24;24.60;52.10
1778;DHT22;886;50.082;8.222;2022-07-17T10:03:51;24.70;51.90
1778;DHT22;886;50.082;8.222;2022-07-17T10:06:22;24.70;51.80
1778;DHT22;886;50.082;8.222;2022-07-17T10:08:51;24.70;52.70
1778;DHT22;886;50.082;8.222;2022-07-17T10:11:21;24.60;53.30
1778;DHT22;886;50.082;8.222;2022-07-17T10:13:51;24.80;52.20
1778;DHT22;886;50.082;8.222;2022-07-17T10:16:24;24.80;52.30
1778;DHT22;886;50.082;8.222;2022-07-17T10:18:56;24.80;51.40
1778;DHT22;886;50.082;8.222;2022-07-17T10:21:31;24.80;50.70
1778;DHT22;886;50.082;8.222;2022-07-17T10:24:09;24.90;51.10
1778;DHT22;886;50.082;8.222;2022-07-17T10:26:41;24.80;50.90
1778;DHT22;886;50.082;8.222;2022-07-17T10:29:27;24.80;50.60
1778;DHT22;886;50.082;8.222;2022-07-17T10:31:56;24.80;51.40
1778;DHT22;886;50.082;8.222;2022-07-17T10:34:40;24.90;51.40
1778;DHT22;886;50.082;8.222;2022-07-17T10:37:25;25.00;50.70
1778;DHT22;886;50.082;8.222;2022-07-17T10:39:59;25.10;51.30
1778;DHT22;886;50.082;8.222;2022-07-17T10:42:41;25.00;51.00
1778;DHT22;886;50.082;8.222;2022-07-17T10:45:15;25.10;50.70
1778;DHT22;886;50.082;8.222;2022-07-17T10:47:49;25.10;50.40
1778;DHT22;886;50.082;8.222;2022-07-17T10:50:21;25.20;51.00
1778;DHT22;886;50.082;8.222;2022-07-17T10:53:14;25.20;51.00
1778;DHT22;886;50.082;8.222;2022-07-17T10:55:51;25.20;50.60
1778;DHT22;886;50.082;8.222;2022-07-17T10:58:25;25.20;50.20
1778;DHT22;886;50.082;8.222;2022-07-17T11:00:58;25.20;50.30
1778;DHT22;886;50.082;8.222;2022-07-17T11:03:31;25.10;50.60
1778;DHT22;886;50.082;8.222;2022-07-17T11:06:10;25.20;51.70
1778;DHT22;886;50.082;8.222;2022-07-17T11:08:51;25.20;51.40
1778;DHT22;886;50.082;8.222;2022-07-17T11:11:21;25.40;50.00
1778;DHT22;886;50.082;8.222;2022-07-17T11:14:07;25.50;50.30
1778;DHT22;886;50.082;8.222;2022-07-17T11:16:35;25.40;50.60
1778;DHT22;886;50.082;8.222;2022-07-17T11:19:03;25.50;50.00
1778;DHT22;886;50.082;8.222;2022-07-17T11:21:30;25.60;50.00
1778;DHT22;886;50.082;8.222;2022-07-17T11:24:09;25.60;50.90
1778;DHT22;886;50.082;8.222;2022-07-17T11:26:36;25.50;50.40
1778;DHT22;886;50.082;8.222;2022-07-17T11:29:03;25.50;50.10
1778;DHT22;886;50.082;8.222;2022-07-17T11:31:33;25.50;49.70
1778;DHT22;886;50.082;8.222;2022-07-17T11:34:04;25.50;49.80
1778;DHT22;886;50.082;8.222;2022-07-17T11:36:35;25.50;49.90
1778;DHT22;886;50.082;8.222;2022-07-17T11:39:06;25.50;49.60
1778;DHT22;886;50.082;8.222;2022-07-17T11:41:38;25.40;49.70
1778;DHT22;886;50.082;8.222;2022-07-17T11:44:10;25.40;50.50
1778;DHT22;886;50.082;8.222;2022-07-17T11:46:40;25.50;49.70
1778;DHT22;886;50.082;8.222;2022-07-17T11:49:09;25.50;49.40
1778;DHT22;886;50.082;8.222;2022-07-17T11:51:38;25.50;49.60
1778;DHT22;886;50.082;8.222;2022-07-17T11:54:11;25.40;49.40
1778;DHT22;886;50.082;8.222;2022-07-17T11:56:42;25.50;49.50
1778;DHT22;886;50.082;8.222;2022-07-17T11:59:10;25.50;49.60
1778;DHT22;886;50.082;8.222;2022-07-17T12:01:39;25.50;49.10
1778;DHT22;886;50.082;8.222;2022-07-17T12:04:09;25.50;49.90
1778;DHT22;886;50.082;8.222;2022-07-17T12:06:58;25.50;50.90
1778;DHT22;886;50.082;8.222;2022-07-17T12:09:32;25.40;50.60
1778;DHT22;886;50.082;8.222;2022-07-17T12:12:01;25.50;51.30
1778;DHT22;886;50.082;8.222;2022-07-17T12:14:30;25.50;50.50
1778;DHT22;886;50.082;8.222;2022-07-17T12:17:03;25.50;51.20
1778;DHT22;886;50.082;8.222;2022-07-17T12:19:30;25.50;50.70
1778;DHT22;886;50.082;8.222;2022-07-17T12:22:00;25.50;50.90
1778;DHT22;886;50.082;8.222;2022-07-17T12:24:31;25.60;50.60
1778;DHT22;886;50.082;8.222;2022-07-17T12:27:00;25.70;49.60
1778;DHT22;886;50.082;8.222;2022-07-17T12:29:29;25.80;49.30
1778;DHT22;886;50.082;8.222;2022-07-17T12:32:07;25.80;50.00
1778;DHT22;886;50.082;8.222;2022-07-17T12:34:38;25.90;50.00
1778;DHT22;886;50.082;8.222;2022-07-17T12:37:12;26.00;49.70
1778;DHT22;886;50.082;8.222;2022-07-17T12:39:40;26.10;49.60
1778;DHT22;886;50.082;8.222;2022-07-17T12:42:07;26.10;49.00
1778;DHT22;886;50.082;8.222;2022-07-17T12:44:36;26.20;48.40
1778;DHT22;886;50.082;8.222;2022-07-17T12:47:03;26.10;48.80
1778;DHT22;886;50.082;8.222;2022-07-17T12:49:31;26.00;48.90
1778;DHT22;886;50.082;8.222;2022-07-17T12:52:01;26.00;48.70
1778;DHT22;886;50.082;8.222;2022-07-17T12:54:29;26.00;48.90
1778;DHT22;886;50.082;8.222;2022-07-17T12:56:59;26.00;48.60
1778;DHT22;886;50.082;8.222;2022-07-17T12:59:26;26.00;47.40
1778;DHT22;886;50.082;8.222;2022-07-17T13:01:54;26.10;47.70
1778;DHT22;886;50.082;8.222;2022-07-17T13:04:21;26.10;47.70
1778;DHT22;886;50.082;8.222;2022-07-17T13:06:48;26.10;47.70
1778;DHT22;886;50.082;8.222;2022-07-17T13:09:16;26.10;48.30
1778;DHT22;886;50.082;8.222;2022-07-17T13:11:46;26.10;48.00
1778;DHT22;886;50.082;8.222;2022-07-17T13:14:15;26.10;48.70
1778;DHT22;886;50.082;8.222;2022-07-17T13:16:43;26.30;48.10
1778;DHT22;886;50.082;8.222;2022-07-17T13:19:10;26.30;47.70
1778;DHT22;886;50.082;8.222;2022-07-17T13:21:38;26.40;47.80
1778;DHT22;886;50.082;8.222;2022-07-17T13:24:05;26.40;47.50
1778;DHT22;886;50.082;8.222;2022-07-17T13:26:32;26.40;47.50
1778;DHT22;886;50.082;8.222;2022-07-17T13:29:00;26.30;47.20
1778;DHT22;886;50.082;8.222;2022-07-17T13:31:30;26.40;46.60
1778;DHT22;886;50.082;8.222;2022-07-17T13:33:57;26.50;46.70
1778;DHT22;886;50.082;8.222;2022-07-17T13:36:24;26.50;46.60
1778;DHT22;886;50.082;8.222;2022-07-17T13:38:52;26.50;46.80
1778;DHT22;886;50.082;8.222;2022-07-17T13:41:19;26.50;46.50
1778;DHT22;886;50.082;8.222;2022-07-17T13:43:46;26.70;47.10
1778;DHT22;886;50.082;8.222;2022-07-17T13:46:13;26.70;48.00
1778;DHT22;886;50.082;8.222;2022-07-17T13:48:42;26.70;48.20
1778;DHT22;886;50.082;8.222;2022-07-17T13:51:09;26.60;49.40
1778;DHT22;886;50.082;8.222;2022-07-17T13:53:39;26.70;48.80
1778;DHT22;886;50.082;8.222;2022-07-17T13:56:06;26.60;49.10
1778;DHT22;886;50.082;8.222;2022-07-17T13:58:34;26.60;48.90
1778;DHT22;886;50.082;8.222;2022-07-17T14:01:01;26.60;48.50
1778;DHT22;886;50.082;8.222;2022-07-17T14:03:31;26.60;48.80
1778;DHT22;886;50.082;8.222;2022-07-17T14:06:00;26.70;47.50
1778;DHT22;886;50.082;8.222;2022-07-17T14:08:33;26.80;48.50
1778;DHT22;886;50.082;8.222;2022-07-17T14:11:01;26.80;48.50
1778;DHT22;886;50.082;8.222;2022-07-17T14:13:28;26.70;47.80
1778;DHT22;886;50.082;8.222;2022-07-17T14:15:56;26.70;48.70
1778;DHT22;886;50.082;8.222;2022-07-17T14:18:24;26.70;48.60
1778;DHT22;886;50.082;8.222;2022-07-17T14:20:51;26.70;47.90
1778;DHT22;886;50.082;8.222;2022-07-17T14:23:22;26.60;47.60
1778;DHT22;886;50.082;8.222;2022-07-17T14:25:49;26.70;47.40
1778;DHT22;886;50.082;8.222;2022-07-17T14:28:17;26.80;47.40
1778;DHT22;886;50.082;8.222;2022-07-17T14:30:47;26.80;46.20
1778;DHT22;886;50.082;8.222;2022-07-17T14:33:14;26.80;46.10
1778;DHT22;886;50.082;8.222;2022-07-17T14:35:41;26.80;46.90
1778;DHT22;886;50.082;8.222;2022-07-17T14:38:08;26.80;47.70
1778;DHT22;886;50.082;8.222;2022-07-17T14:40:37;26.80;48.40
1778;DHT22;886;50.082;8.222;2022-07-17T14:43:04;26.90;46.80
1778;DHT22;886;50.082;8.222;2022-07-17T14:45:31;26.80;46.50
1778;DHT22;886;50.082;8.222;2022-07-17T14:48:02;26.90;45.70
1778;DHT22;886;50.082;8.222;2022-07-17T14:50:29;26.90;43.70
1778;DHT22;886;50.082;8.222;2022-07-17T14:53:02;27.00;43.30
1778;DHT22;886;50.082;8.222;2022-07-17T14:55:30;26.90;43.00
1778;DHT22;886;50.082;8.222;2022-07-17T14:57:58;26.90;43.40
1778;DHT22;886;50.082;8.222;2022-07-17T15:00:26;26.80;44.10
1778;DHT22;886;50.082;8.222;2022-07-17T15:02:53;26.80;44.30
1778;DHT22;886;50.082;8.222;2022-07-17T15:05:20;26.80;43.80
1778;DHT22;886;50.082;8.222;2022-07-17T15:07:48;26.90;43.30
1778;DHT22;886;50.082;8.222;2022-07-17T15:10:15;26.90;43.90
1778;DHT22;886;50.082;8.222;2022-07-17T15:12:45;26.90;44.80
1778;DHT22;886;50.082;8.222;2022-07-17T15:15:14;26.90;42.60
1778;DHT22;886;50.082;8.222;2022-07-17T15:17:41;27.00;41.00
1778;DHT22;886;50.082;8.222;2022-07-17T15:20:09;27.00;40.30
1778;DHT22;886;50.082;8.222;2022-07-17T15:22:37;27.10;40.50
1778;DHT22;886;50.082;8.222;2022-07-17T15:25:10;27.10;40.70
1778;DHT22;886;50.082;8.222;2022-07-17T15:27:37;27.10;40.70
1778;DHT22;886;50.082;8.222;2022-07-17T15:30:06;27.10;40.80
1778;DHT22;886;50.082;8.222;2022-07-17T15:32:36;27.20;40.60
1778;DHT22;886;50.082;8.222;2022-07-17T15:35:10;27.10;40.60
1778;DHT22;886;50.082;8.222;2022-07-17T15:37:40;27.00;40.70
1778;DHT22;886;50.082;8.222;2022-07-17T15:40:10;27.00;40.80
1778;DHT22;886;50.082;8.222;2022-07-17T15:42:38;27.00;41.60
1778;DHT22;886;50.082;8.222;2022-07-17T15:45:08;27.00;40.70
1778;DHT22;886;50.082;8.222;2022-07-17T15:47:39;27.00;40.00
1778;DHT22;886;50.082;8.222;2022-07-17T15:50:07;27.10;40.80
1778;DHT22;886;50.082;8.222;2022-07-17T15:52:34;27.00;40.10
1778;DHT22;886;50.082;8.222;2022-07-17T15:55:01;27.00;40.50
1778;DHT22;886;50.082;8.222;2022-07-17T15:57:29;27.00;41.60
1778;DHT22;886;50.082;8.222;2022-07-17T15:59:56;26.90;41.30
1778;DHT22;886;50.082;8.222;2022-07-17T16:02:23;27.00;40.40
1778;DHT22;886;50.082;8.222;2022-07-17T16:04:53;27.00;39.60
1778;DHT22;886;50.082;8.222;2022-07-17T16:07:20;27.00;39.20
1778;DHT22;886;50.082;8.222;2022-07-17T16:09:47;27.10;38.80
1778;DHT22;886;50.082;8.222;2022-07-17T16:12:14;27.20;39.30
1778;DHT22;886;50.082;8.222;2022-07-17T16:14:41;27.20;39.10
1778;DHT22;886;50.082;8.222;2022-07-17T16:17:08;27.10;38.80
1778;DHT22;886;50.082;8.222;2022-07-17T16:19:35;27.20;38.60
1778;DHT22;886;50.082;8.222;2022-07-17T16:22:04;27.20;38.00
1778;DHT22;886;50.082;8.222;2022-07-17T16:24:31;27.30;38.30
1778;DHT22;886;50.082;8.222;2022-07-17T16:26:58;27.30;38.40
1778;DHT22;886;50.082;8.222;2022-07-17T16:29:26;27.30;38.00